createdAt,value
2022-08-23T00:01:18.365Z,19.47
2022-08-23T00:03:48.505Z,19.43
2022-08-23T00:06:15.395Z,19.47
2022-08-23T00:08:47.416Z,19.41
2022-08-23T00:11:34.497Z,19.41
2022-08-23T00:14:05.382Z,19.35
2022-08-23T00:16:32.294Z,19.33
2022-08-23T00:18:59.382Z,19.30
2022-08-23T00:21:26.274Z,19.28
2022-08-23T00:23:53.245Z,19.35
2022-08-23T00:26:20.153Z,19.35
2022-08-23T00:28:47.848Z,19.30
2022-08-23T00:31:15.366Z,19.32
2022-08-23T00:33:42.542Z,19.33
2022-08-23T00:36:09.765Z,19.29
2022-08-23T00:38:38.261Z,19.29
2022-08-23T00:41:05.355Z,19.27
2022-08-23T00:43:35.698Z,19.28
2022-08-23T00:46:21.230Z,19.16
2022-08-23T00:48:48.341Z,19.13
2022-08-23T00:51:53.208Z,19.05
2022-08-23T00:54:22.770Z,19.02
2022-08-23T00:56:50.384Z,18.96
2022-08-23T00:59:17.792Z,18.86
2022-08-23T01:01:44.929Z,18.73
2022-08-23T01:04:12.716Z,18.65
2022-08-23T01:06:48.102Z,18.53
2022-08-23T01:09:16.719Z,18.44
2022-08-23T01:11:48.259Z,18.29
2022-08-23T01:14:18.457Z,18.18
2022-08-23T01:16:48.321Z,18.14
2022-08-23T01:19:24.001Z,17.94
2022-08-23T01:21:57.654Z,17.90
2022-08-23T01:25:07.814Z,17.85
2022-08-23T01:27:13.973Z,17.77
2022-08-23T01:29:41.555Z,17.66
2022-08-23T01:32:08.958Z,17.63
2022-08-23T01:34:36.452Z,17.52
2022-08-23T01:37:08.126Z,17.44
2022-08-23T01:39:35.780Z,17.33
2022-08-23T01:42:07.532Z,17.18
2022-08-23T01:44:35.157Z,17.15
2022-08-23T01:47:02.509Z,17.18
2022-08-23T01:49:29.787Z,17.13
2022-08-23T01:51:56.917Z,17.10
2022-08-23T01:54:24.100Z,17.06
2022-08-23T01:56:51.072Z,17.03
2022-08-23T01:59:17.978Z,17.00
2022-08-23T02:01:48.114Z,16.95
2022-08-23T02:04:16.045Z,16.92
2022-08-23T02:06:42.933Z,16.94
2022-08-23T02:09:17.265Z,16.93
2022-08-23T02:11:46.388Z,16.89
2022-08-23T02:14:15.117Z,16.85
2022-08-23T02:16:53.778Z,16.82
2022-08-23T02:19:33.259Z,16.73
2022-08-23T02:22:00.334Z,16.66
2022-08-23T02:24:27.372Z,16.66
2022-08-23T02:26:56.658Z,16.60
2022-08-23T02:29:27.021Z,16.59
2022-08-23T02:31:55.615Z,16.58
2022-08-23T02:34:23.224Z,16.60
2022-08-23T02:36:52.170Z,16.54
2022-08-23T02:39:19.483Z,16.55
2022-08-23T02:41:47.402Z,16.51
2022-08-23T02:44:14.374Z,16.54
2022-08-23T02:46:41.793Z,16.54
2022-08-23T02:49:08.897Z,16.53
2022-08-23T02:51:36.228Z,16.44
2022-08-23T02:54:04.062Z,16.42
2022-08-23T02:56:31.187Z,16.34
2022-08-23T02:58:58.105Z,16.28
2022-08-23T03:01:27.381Z,16.25
2022-08-23T03:03:56.969Z,16.18
2022-08-23T03:06:24.561Z,16.14
2022-08-23T03:08:53.656Z,16.16
2022-08-23T03:11:21.284Z,16.11
2022-08-23T03:13:50.838Z,16.17
2022-08-23T03:16:18.318Z,16.17
2022-08-23T03:18:47.429Z,16.18
2022-08-23T03:21:14.465Z,16.16
2022-08-23T03:23:41.420Z,16.14
2022-08-23T03:26:10.088Z,16.10
2022-08-23T03:28:39.135Z,16.05
2022-08-23T03:31:06.683Z,16.02
2022-08-23T03:33:40.260Z,15.93
2022-08-23T03:36:08.348Z,15.94
2022-08-23T03:38:35.582Z,15.91
2022-08-23T03:41:04.826Z,15.91
2022-08-23T03:43:31.902Z,15.93
2022-08-23T03:46:03.833Z,15.95
2022-08-23T03:48:30.991Z,15.97
2022-08-23T03:50:58.937Z,16.00
2022-08-23T03:53:25.940Z,16.01
2022-08-23T03:55:54.878Z,15.98
2022-08-23T03:58:21.994Z,16.00
2022-08-23T04:00:49.061Z,15.93
2022-08-23T04:03:16.288Z,15.94
2022-08-23T04:06:09.672Z,15.97
2022-08-23T04:08:36.620Z,15.99
2022-08-23T04:11:05.142Z,15.96
2022-08-23T04:13:33.193Z,15.98
2022-08-23T04:16:02.656Z,15.98
2022-08-23T04:18:30.449Z,15.95
2022-08-23T04:20:58.116Z,15.95
2022-08-23T04:23:25.441Z,15.91
2022-08-23T04:25:55.098Z,15.89
2022-08-23T04:28:24.268Z,15.83
2022-08-23T04:30:51.434Z,15.81
2022-08-23T04:33:18.509Z,15.79
2022-08-23T04:35:48.478Z,15.76
2022-08-23T04:38:24.220Z,15.76
2022-08-23T04:40:54.331Z,15.70
2022-08-23T04:43:21.279Z,15.70
2022-08-23T04:45:48.873Z,15.70
2022-08-23T04:48:27.230Z,15.64
2022-08-23T04:50:54.251Z,15.61
2022-08-23T04:53:21.220Z,15.53
2022-08-23T04:55:55.811Z,15.52
2022-08-23T04:58:22.776Z,15.48
2022-08-23T05:00:52.169Z,15.52
2022-08-23T05:03:24.480Z,15.47
2022-08-23T05:05:52.617Z,15.48
2022-08-23T05:08:21.613Z,15.44
2022-08-23T05:10:48.514Z,15.47
2022-08-23T05:13:15.536Z,15.47
2022-08-23T05:15:43.367Z,15.52
2022-08-23T05:18:10.750Z,15.52
2022-08-23T05:20:38.984Z,15.58
2022-08-23T05:23:05.881Z,15.65
2022-08-23T05:25:34.935Z,15.67
2022-08-23T05:28:02.328Z,15.75
2022-08-23T05:30:29.350Z,15.79
2022-08-23T05:32:57.691Z,15.83
2022-08-23T05:35:41.506Z,15.92
2022-08-23T05:38:08.391Z,16.01
2022-08-23T05:40:35.339Z,16.10
2022-08-23T05:43:09.858Z,16.17
2022-08-23T05:45:37.207Z,16.27
2022-08-23T05:48:06.568Z,16.32
2022-08-23T05:50:44.016Z,16.43
2022-08-23T05:53:10.918Z,16.53
2022-08-23T05:55:38.302Z,16.74
2022-08-23T05:58:16.045Z,17.03
2022-08-23T06:00:44.134Z,17.32
2022-08-23T06:03:11.791Z,17.65
2022-08-23T06:05:39.388Z,17.87
2022-08-23T06:08:06.292Z,18.17
2022-08-23T06:10:38.307Z,18.44
2022-08-23T06:13:20.367Z,18.78
2022-08-23T06:15:47.410Z,19.09
2022-08-23T06:18:14.578Z,19.29
2022-08-23T06:20:42.378Z,19.46
2022-08-23T06:23:14.049Z,19.75
2022-08-23T06:25:42.767Z,19.87
2022-08-23T06:28:15.106Z,20.06
2022-08-23T06:30:42.799Z,20.27
2022-08-23T06:33:24.839Z,20.60
2022-08-23T06:36:11.601Z,20.84
2022-08-23T06:39:07.731Z,21.11
2022-08-23T06:41:49.970Z,21.29
2022-08-23T06:44:26.485Z,21.54
2022-08-23T06:46:58.938Z,21.66
2022-08-23T06:49:26.686Z,21.79
2022-08-23T06:51:54.841Z,21.80
2022-08-23T06:54:31.846Z,22.05
2022-08-23T06:57:17.102Z,22.05
2022-08-23T07:00:04.498Z,22.12
2022-08-23T07:02:41.795Z,22.17
2022-08-23T07:05:32.058Z,22.47
2022-08-23T07:08:08.152Z,22.54
2022-08-23T07:10:35.183Z,22.56
2022-08-23T07:13:02.762Z,22.89
2022-08-23T07:15:29.800Z,23.05
2022-08-23T07:17:56.821Z,23.15
2022-08-23T07:20:23.997Z,23.10
2022-08-23T07:22:51.148Z,23.23
2022-08-23T07:25:19.289Z,23.51
2022-08-23T07:27:49.909Z,23.58
2022-08-23T07:30:19.921Z,23.53
2022-08-23T07:32:47.744Z,23.36
2022-08-23T07:35:22.019Z,23.56
2022-08-23T07:37:51.062Z,23.96
2022-08-23T07:40:20.623Z,24.21
2022-08-23T07:42:50.958Z,24.58
2022-08-23T07:45:18.130Z,24.44
2022-08-23T07:47:50.619Z,24.35
2022-08-23T07:50:18.375Z,24.79
2022-08-23T07:52:46.729Z,24.60
2022-08-23T07:55:14.831Z,24.87
2022-08-23T07:58:21.700Z,25.12
2022-08-23T08:01:18.792Z,25.50
2022-08-23T08:03:51.003Z,25.49
2022-08-23T08:06:43.296Z,25.82
2022-08-23T08:09:10.425Z,25.53
2022-08-23T08:11:37.599Z,25.18
2022-08-23T08:14:06.612Z,25.33
2022-08-23T08:16:37.967Z,25.52
2022-08-23T08:19:09.362Z,25.72
2022-08-23T08:22:11.021Z,26.12
2022-08-23T08:24:58.099Z,25.88
2022-08-23T08:27:25.023Z,26.27
2022-08-23T08:29:51.909Z,26.43
2022-08-23T08:32:18.803Z,26.19
2022-08-23T08:34:45.656Z,26.01
2022-08-23T08:37:12.566Z,26.40
2022-08-23T08:39:40.394Z,26.48
2022-08-23T08:42:22.539Z,26.61
2022-08-23T08:44:54.850Z,26.89
2022-08-23T08:47:43.017Z,26.59
2022-08-23T08:50:15.000Z,26.45
2022-08-23T08:52:44.952Z,26.53
2022-08-23T08:55:23.375Z,26.79
2022-08-23T08:57:52.018Z,27.25
2022-08-23T09:00:46.380Z,27.39
2022-08-23T09:03:14.806Z,27.53
2022-08-23T09:05:48.843Z,27.89
2022-08-23T09:08:18.710Z,28.04
2022-08-23T09:10:45.568Z,28.09
2022-08-23T09:13:41.070Z,27.67
2022-08-23T09:16:21.009Z,27.65
2022-08-23T09:18:48.387Z,27.84
2022-08-23T09:21:15.808Z,27.91
2022-08-23T09:23:44.146Z,28.02
2022-08-23T09:26:23.004Z,28.24
2022-08-23T09:28:55.620Z,28.76
2022-08-23T09:31:37.904Z,28.82
2022-08-23T09:34:05.148Z,28.82
2022-08-23T09:36:44.549Z,28.51
2022-08-23T09:39:30.859Z,29.05
2022-08-23T09:42:02.157Z,29.42
2022-08-23T09:44:35.234Z,29.33
2022-08-23T09:47:06.680Z,29.34
2022-08-23T09:49:35.584Z,29.51
2022-08-23T09:52:22.320Z,29.42
2022-08-23T09:54:56.378Z,29.63
2022-08-23T09:57:27.837Z,29.75
2022-08-23T09:59:55.389Z,29.94
2022-08-23T10:02:34.236Z,29.73
2022-08-23T10:05:27.515Z,29.92
2022-08-23T10:07:56.594Z,30.15
2022-08-23T10:10:37.244Z,30.02
2022-08-23T10:13:06.368Z,29.57
2022-08-23T10:15:45.093Z,29.18
2022-08-23T10:18:24.121Z,29.08
2022-08-23T10:21:01.436Z,29.13
2022-08-23T10:23:31.358Z,29.38
2022-08-23T10:25:58.440Z,29.41
2022-08-23T10:28:40.973Z,29.56
2022-08-23T10:31:17.869Z,29.74
2022-08-23T10:33:48.924Z,29.83
2022-08-23T10:36:22.722Z,30.03
2022-08-23T10:38:58.285Z,30.20
2022-08-23T10:41:31.281Z,30.29
2022-08-23T10:44:07.338Z,30.52
2022-08-23T10:46:39.695Z,30.76
2022-08-23T10:49:06.687Z,30.66
2022-08-23T10:51:40.407Z,30.57
2022-08-23T10:54:15.890Z,30.26
2022-08-23T10:56:50.269Z,30.51
2022-08-23T10:59:23.953Z,30.28
2022-08-23T11:01:58.312Z,30.50
2022-08-23T11:04:32.649Z,30.63
2022-08-23T11:07:25.366Z,30.75
2022-08-23T11:09:52.672Z,30.42
2022-08-23T11:12:26.968Z,30.73
2022-08-23T11:15:03.987Z,30.80
2022-08-23T11:17:49.313Z,30.94
2022-08-23T11:20:36.452Z,30.57
2022-08-23T11:23:03.436Z,30.88
2022-08-23T11:25:30.981Z,31.15
2022-08-23T11:28:16.691Z,31.21
2022-08-23T11:30:48.823Z,31.45
2022-08-23T11:33:42.165Z,31.31
2022-08-23T11:36:09.025Z,31.49
2022-08-23T11:38:49.119Z,31.56
2022-08-23T11:41:31.604Z,31.87
2022-08-23T11:44:04.615Z,31.89
2022-08-23T11:46:31.550Z,30.98
2022-08-23T11:49:24.568Z,31.46
2022-08-23T11:51:57.447Z,31.70
2022-08-23T11:54:53.607Z,31.51
2022-08-23T11:57:39.080Z,31.62
2022-08-23T12:00:17.553Z,31.71
2022-08-23T12:02:52.194Z,31.44
2022-08-23T12:05:22.869Z,31.53
2022-08-23T12:08:01.948Z,31.73
2022-08-23T12:10:38.102Z,31.86
2022-08-23T12:13:20.199Z,32.27
2022-08-23T12:16:05.748Z,32.54
2022-08-23T12:18:52.807Z,32.51
2022-08-23T12:21:19.629Z,32.54
2022-08-23T12:23:50.899Z,32.62
2022-08-23T12:26:24.771Z,32.80
2022-08-23T12:29:05.604Z,32.87
2022-08-23T12:31:40.890Z,33.07
2022-08-23T12:34:19.768Z,33.31
2022-08-23T12:36:58.619Z,32.93
2022-08-23T12:39:29.291Z,33.22
2022-08-23T12:41:59.105Z,33.07
2022-08-23T12:44:28.066Z,33.21
2022-08-23T12:46:55.133Z,33.60
2022-08-23T12:49:27.728Z,33.44
2022-08-23T12:51:56.752Z,33.52
2022-08-23T12:54:32.375Z,33.41
2022-08-23T12:57:20.019Z,33.61
2022-08-23T12:59:59.983Z,33.32
2022-08-23T13:02:47.398Z,33.10
2022-08-23T13:05:20.632Z,32.92
2022-08-23T13:07:48.004Z,32.69
2022-08-23T13:10:15.001Z,32.53
2022-08-23T13:12:42.166Z,32.01
2022-08-23T13:15:09.218Z,31.73
2022-08-23T13:17:37.877Z,31.80
2022-08-23T13:20:07.493Z,31.72
2022-08-23T13:22:35.508Z,31.51
2022-08-23T13:25:27.562Z,30.82
2022-08-23T13:27:53.966Z,30.92
2022-08-23T13:30:28.843Z,30.85
2022-08-23T13:33:08.105Z,30.74
2022-08-23T13:35:40.051Z,30.47
2022-08-23T13:38:06.873Z,30.37
2022-08-23T13:40:47.597Z,30.53
2022-08-23T13:43:19.148Z,30.47
2022-08-23T13:45:48.473Z,30.50
2022-08-23T13:48:15.297Z,30.40
2022-08-23T13:50:42.283Z,30.30
2022-08-23T13:53:14.850Z,30.32
2022-08-23T13:55:54.004Z,30.26
2022-08-23T13:58:28.773Z,30.15
2022-08-23T14:00:59.009Z,30.01
2022-08-23T14:03:28.662Z,30.09
2022-08-23T14:05:55.578Z,30.02
2022-08-23T14:08:22.766Z,30.05
2022-08-23T14:10:49.967Z,30.07
2022-08-23T14:13:17.559Z,30.11
2022-08-23T14:18:32.854Z,30.34
2022-08-23T14:20:59.872Z,30.37
2022-08-23T14:23:26.709Z,30.44
2022-08-23T14:25:54.786Z,30.35
2022-08-23T14:28:24.150Z,30.41
2022-08-23T14:30:52.044Z,30.33
2022-08-23T14:33:18.928Z,30.16
2022-08-23T14:35:45.786Z,30.11
2022-08-23T14:38:12.619Z,30.07
2022-08-23T14:40:39.491Z,29.90
2022-08-23T14:43:06.361Z,29.94
2022-08-23T14:45:33.251Z,29.69
2022-08-23T14:48:00.256Z,29.66
2022-08-23T14:50:28.226Z,29.56
2022-08-23T14:52:55.734Z,29.57
2022-08-23T14:55:25.039Z,29.54
2022-08-23T14:57:52.219Z,29.60
2022-08-23T15:00:19.152Z,29.65
2022-08-23T15:02:47.520Z,29.69
2022-08-23T15:05:14.784Z,29.69
2022-08-23T15:07:41.607Z,29.71
2022-08-23T15:10:09.290Z,29.64
2022-08-23T15:15:23.504Z,29.58
2022-08-23T15:17:58.101Z,29.55
2022-08-23T15:20:27.560Z,29.53
2022-08-23T15:23:03.463Z,29.42
2022-08-23T15:25:31.413Z,29.24
2022-08-23T15:27:59.005Z,29.15
2022-08-23T15:30:26.391Z,29.02
2022-08-23T15:33:01.283Z,28.89
2022-08-23T15:35:33.978Z,28.76
2022-08-23T15:38:00.805Z,28.56
2022-08-23T15:40:27.724Z,28.47
2022-08-23T15:42:54.601Z,28.43
2022-08-23T15:45:23.971Z,28.36
2022-08-23T15:47:55.347Z,28.28
2022-08-23T15:50:24.196Z,28.17
2022-08-23T15:52:51.443Z,28.26
2022-08-23T15:55:19.754Z,28.37
2022-08-23T15:57:48.090Z,28.46
2022-08-23T16:00:15.933Z,28.34
2022-08-23T16:03:06.599Z,28.34
2022-08-23T16:05:30.285Z,28.28
2022-08-23T16:07:57.734Z,28.26
2022-08-23T16:10:27.202Z,28.23
2022-08-23T16:12:55.390Z,28.21
2022-08-23T16:15:22.271Z,28.11
2022-08-23T16:17:49.135Z,28.02
2022-08-23T16:20:16.100Z,27.94
2022-08-23T16:22:42.978Z,27.88
2022-08-23T16:25:10.536Z,27.84
2022-08-23T16:27:37.590Z,27.77
2022-08-23T16:30:05.505Z,27.75
2022-08-23T16:32:32.325Z,27.67
2022-08-23T16:34:59.152Z,27.64
2022-08-23T16:37:25.991Z,27.57
2022-08-23T16:39:52.976Z,27.52
2022-08-23T16:42:19.907Z,27.48
2022-08-23T16:44:46.744Z,27.45
2022-08-23T16:47:13.600Z,27.38
2022-08-23T16:49:40.501Z,27.35
2022-08-23T16:52:07.343Z,27.35
2022-08-23T16:54:34.164Z,27.31
2022-08-23T16:57:00.985Z,27.28
2022-08-23T16:59:28.107Z,27.24
2022-08-23T17:01:56.726Z,27.20
2022-08-23T17:04:24.293Z,27.12
2022-08-23T17:06:51.816Z,27.05
2022-08-23T17:09:18.610Z,26.98
2022-08-23T17:11:45.464Z,26.87
2022-08-23T17:14:12.793Z,26.75
2022-08-23T17:16:39.785Z,26.60
2022-08-23T17:19:06.656Z,26.64
2022-08-23T17:21:33.519Z,26.59
2022-08-23T17:24:00.342Z,26.48
2022-08-23T17:26:27.212Z,26.33
2022-08-23T17:28:54.144Z,26.21
2022-08-23T17:31:21.051Z,26.11
2022-08-23T17:33:47.936Z,26.05
2022-08-23T17:36:23.584Z,25.95
2022-08-23T17:38:50.440Z,25.80
2022-08-23T17:41:17.340Z,25.67
2022-08-23T17:43:44.182Z,25.55
2022-08-23T17:46:12.196Z,25.47
2022-08-23T17:48:39.120Z,25.37
2022-08-23T17:51:06.035Z,25.30
2022-08-23T17:53:32.922Z,25.22
2022-08-23T17:55:59.774Z,25.14
2022-08-23T17:58:26.724Z,25.07
2022-08-23T18:00:54.780Z,25.02
2022-08-23T18:03:21.681Z,24.95
2022-08-23T18:05:48.571Z,24.88
2022-08-23T18:08:15.442Z,24.75
2022-08-23T18:10:42.275Z,24.58
2022-08-23T18:13:10.371Z,24.49
2022-08-23T18:15:37.292Z,24.40
2022-08-23T18:18:04.190Z,24.26
2022-08-23T18:20:31.090Z,24.25
2022-08-23T18:22:59.546Z,24.19
2022-08-23T18:25:26.475Z,24.08
2022-08-23T18:27:53.505Z,23.94
2022-08-23T18:30:20.402Z,23.78
2022-08-23T18:32:47.473Z,23.66
2022-08-23T18:35:14.354Z,23.64
2022-08-23T18:37:41.259Z,23.58
2022-08-23T18:40:10.149Z,23.48
2022-08-23T18:42:37.561Z,23.36
2022-08-23T18:45:05.682Z,23.26
2022-08-23T18:47:33.514Z,23.16
2022-08-23T18:50:00.633Z,23.07
2022-08-23T18:52:27.505Z,22.94
2022-08-23T18:54:58.110Z,22.86
2022-08-23T18:57:25.936Z,22.72
2022-08-23T18:59:52.765Z,22.66
2022-08-23T19:02:19.756Z,22.64
2022-08-23T19:04:46.745Z,22.59
2022-08-23T19:07:13.597Z,22.51
2022-08-23T19:09:40.638Z,22.38
2022-08-23T19:12:07.695Z,22.23
2022-08-23T19:14:34.512Z,22.22
2022-08-23T19:17:02.282Z,22.19
2022-08-23T19:19:29.418Z,22.15
2022-08-23T19:21:56.285Z,22.09
2022-08-23T19:24:23.144Z,21.99
2022-08-23T19:26:50.000Z,21.87
2022-08-23T19:29:17.366Z,21.75
2022-08-23T19:31:44.866Z,21.59
2022-08-23T19:34:11.734Z,21.53
2022-08-23T19:36:48.346Z,21.48
2022-08-23T19:39:18.812Z,21.43
2022-08-23T19:41:46.014Z,21.38
2022-08-23T19:44:12.842Z,21.29
2022-08-23T19:46:40.054Z,21.19
2022-08-23T19:49:09.823Z,21.13
2022-08-23T19:51:38.015Z,21.05
2022-08-23T19:54:10.970Z,20.93
2022-08-23T19:56:41.346Z,20.89
2022-08-23T19:59:10.271Z,20.82
2022-08-23T20:01:37.167Z,20.79
2022-08-23T20:04:05.059Z,20.69
2022-08-23T20:06:32.439Z,20.50
2022-08-23T20:08:59.341Z,20.45
2022-08-23T20:11:26.343Z,20.45
2022-08-23T20:13:53.609Z,20.45
2022-08-23T20:16:21.478Z,20.45
2022-08-23T20:18:48.320Z,20.43
2022-08-23T20:21:17.759Z,20.30
2022-08-23T20:23:44.804Z,20.25
2022-08-23T20:26:12.708Z,20.16
2022-08-23T20:28:39.562Z,20.08
2022-08-23T20:31:28.074Z,20.02
2022-08-23T20:33:54.964Z,19.99
2022-08-23T20:36:21.911Z,19.81
2022-08-23T20:38:48.825Z,19.80
2022-08-23T20:41:16.825Z,19.82
2022-08-23T20:43:46.467Z,19.82
2022-08-23T20:46:13.675Z,19.79
2022-08-23T20:48:40.601Z,19.72
2022-08-23T20:51:07.471Z,19.46
2022-08-23T20:53:34.876Z,19.50
2022-08-23T20:56:01.897Z,19.51
2022-08-23T20:58:28.851Z,19.48
2022-08-23T21:01:11.342Z,19.46
2022-08-23T21:03:38.583Z,19.54
2022-08-23T21:06:14.119Z,19.66
2022-08-23T21:08:43.304Z,19.72
2022-08-23T21:11:10.434Z,19.72
2022-08-23T21:13:37.552Z,19.89
2022-08-23T21:16:04.462Z,20.07
2022-08-23T21:18:31.336Z,20.12
2022-08-23T21:20:58.182Z,20.03
2022-08-23T21:23:25.035Z,19.81
2022-08-23T21:25:53.179Z,19.78
2022-08-23T21:28:20.146Z,19.77
2022-08-23T21:30:47.167Z,19.88
2022-08-23T21:33:14.268Z,19.88
2022-08-23T21:35:41.127Z,19.86
2022-08-23T21:38:07.966Z,19.92
2022-08-23T21:40:34.799Z,20.22
2022-08-23T21:43:01.731Z,20.27
2022-08-23T21:45:28.692Z,20.19
2022-08-23T21:47:55.514Z,20.25
2022-08-23T21:50:24.568Z,20.32
2022-08-23T21:52:56.501Z,20.36
2022-08-23T21:55:36.045Z,20.43
2022-08-23T21:58:03.817Z,20.44
2022-08-23T22:00:31.830Z,20.44
2022-08-23T22:02:58.927Z,20.40
2022-08-23T22:05:25.991Z,20.52
2022-08-23T22:07:53.296Z,20.45
2022-08-23T22:10:20.184Z,20.43
2022-08-23T22:12:47.084Z,20.44
2022-08-23T22:15:14.230Z,20.43
2022-08-23T22:17:41.033Z,20.37
2022-08-23T22:20:08.475Z,20.37
2022-08-23T22:22:35.698Z,20.32
2022-08-23T22:25:03.392Z,20.35
2022-08-23T22:27:30.315Z,20.23
2022-08-23T22:29:57.171Z,20.17
2022-08-23T22:32:23.994Z,20.13
2022-08-23T22:34:50.846Z,20.10
2022-08-23T22:37:17.763Z,20.05
2022-08-23T22:39:44.626Z,19.96
2022-08-23T22:42:11.513Z,19.82
2022-08-23T22:44:38.594Z,19.82
2022-08-23T22:47:05.561Z,19.72
2022-08-23T22:49:32.371Z,19.74
2022-08-23T22:51:59.246Z,19.69
2022-08-23T22:54:26.080Z,19.66
2022-08-23T22:56:53.330Z,19.70
2022-08-23T22:59:21.164Z,19.57
2022-08-23T23:01:52.709Z,19.59
2022-08-23T23:04:21.262Z,19.48
2022-08-23T23:06:48.823Z,19.52
2022-08-23T23:09:16.175Z,19.54
2022-08-23T23:11:43.577Z,19.54
2022-08-23T23:14:10.792Z,19.50
2022-08-23T23:16:37.724Z,19.44
2022-08-23T23:19:04.930Z,19.45
2022-08-23T23:21:33.023Z,19.47
2022-08-23T23:23:59.982Z,19.53
2022-08-23T23:26:26.806Z,19.30
2022-08-23T23:28:53.660Z,19.30
2022-08-23T23:31:20.465Z,19.39
2022-08-23T23:33:47.293Z,19.41
2022-08-23T23:36:16.509Z,19.38
2022-08-23T23:38:44.732Z,19.26
2022-08-23T23:41:11.651Z,19.05
2022-08-23T23:43:38.512Z,19.19
2022-08-23T23:46:09.481Z,18.82
2022-08-23T23:48:40.631Z,18.61
2022-08-23T23:51:08.879Z,18.71
2022-08-23T23:53:36.481Z,18.79
2022-08-23T23:56:05.160Z,19.18
2022-08-23T23:58:32.087Z,19.10
